Hammersley Fork, Pennsylvania
Current Conditions -  °F | °C
As of 5:55 AM on Friday 19 Dec 2014 (Local Time) from KN38 Reporting Station
Overcast Overcast  
Wind Chill: 14°   Ceiling: 1400
Heat Index: 27°   Visibility: 10mi
Dew Point: 23°   Wind: 16mph
Humidity: 86%   Direction: 320°NW
Pressure: 30.01"   Gusts: NA
Location:  41.3916°N, 77.7796°W
Report Text: KN38 191055Z AUTO 32014KT 10SM OVC014 M03/M05 A3001 RMK AO2
Loading
Personal Weather Stations






























Interactive Weather Map New forecast layout! Learn more

10-Day Weather Forecast

Advertisements
Track Severe Weather on mobile